Time;durP1;ratioP1;P1;durP2;ratioP2;P2;SDS_P1;SDS_P2;PMS_P1;PMS_P2;Temp;Humidity;BMP_temperature;BMP_pressure;BME280_temperature;BME280_humidity;BME280_pressure;Samples;Min_cycle;Max_cycle;Signal;HPM_P1;HPM_P2
2022/06/23 00:01:04;;;;;;;3.15;1.42;;;;;;;19.60;54.95;100888.31;5037946;28;20112;-77
2022/06/23 00:03:34;;;;;;;3.72;1.50;;;;;;;19.57;55.10;100888.75;5037363;28;20037;-77
2022/06/23 00:06:05;;;;;;;4.47;1.58;;;;;;;19.51;55.69;100897.47;5033466;28;20045;-77
2022/06/23 00:08:30;;;;;;;2.63;1.25;;;;;;;19.43;55.66;100890.66;5029679;28;20080;-77
2022/06/23 00:10:58;;;;;;;5.28;1.60;;;;;;;19.42;55.56;100896.09;5017756;28;20040;-77
2022/06/23 00:13:34;;;;;;;7.93;1.63;;;;;;;19.41;55.33;100894.50;5032396;28;20025;-77
2022/06/23 00:16:02;;;;;;;3.80;1.60;;;;;;;19.38;55.23;100901.00;5015372;28;20604;-77
2022/06/23 00:18:34;;;;;;;4.22;1.50;;;;;;;19.33;55.22;100900.84;5033411;28;20036;-77
2022/06/23 00:21:04;;;;;;;3.90;1.40;;;;;;;19.24;54.77;100895.00;5033131;28;20545;-77
2022/06/23 00:23:34;;;;;;;3.67;1.27;;;;;;;19.22;54.28;100893.63;5031573;28;20496;-77
2022/06/23 00:26:04;;;;;;;2.85;1.40;;;;;;;19.19;54.30;100897.47;5034688;28;20101;-77
2022/06/23 00:28:41;;;;;;;5.05;1.48;;;;;;;19.19;54.30;100896.66;5033697;28;20131;-77
2022/06/23 00:31:23;;;;;;;2.05;1.52;;;;;;;19.19;54.40;100886.97;5043524;28;20088;-77
2022/06/23 00:33:49;;;;;;;7.43;1.52;;;;;;;19.16;54.61;100890.00;5039281;28;20037;-77
2022/06/23 00:36:16;;;;;;;3.53;1.45;;;;;;;19.15;55.32;100895.47;5037890;28;20033;-77
2022/06/23 00:38:42;;;;;;;2.13;1.63;;;;;;;19.11;55.50;100894.28;5051071;28;20252;-77
2022/06/23 00:41:19;;;;;;;4.38;1.48;;;;;;;19.07;55.65;100880.75;5030662;28;20036;-77
2022/06/23 00:43:47;;;;;;;4.10;1.27;;;;;;;19.03;55.54;100875.09;5035755;28;20108;-77
2022/06/23 00:46:21;;;;;;;3.70;1.50;;;;;;;18.97;55.51;100875.16;5038144;28;20053;-77
2022/06/23 00:48:53;;;;;;;2.85;1.60;;;;;;;18.92;55.30;100878.41;5046857;28;20030;-77
2022/06/23 00:51:47;;;;;;;2.43;1.50;;;;;;;18.86;55.49;100874.78;5037266;28;20536;-77
2022/06/23 00:54:19;;;;;;;2.88;1.65;;;;;;;18.82;55.52;100870.97;5034676;28;20083;-77
2022/06/23 00:56:52;;;;;;;3.80;1.38;;;;;;;18.78;55.45;100868.91;5050625;28;20029;-77
2022/06/23 00:59:27;;;;;;;1.70;1.30;;;;;;;18.70;55.44;100864.72;5048955;28;20076;-76
2022/06/23 01:01:59;;;;;;;3.60;1.33;;;;;;;18.67;55.16;100865.16;5038170;28;20041;-77
2022/06/23 01:04:45;;;;;;;4.45;1.38;;;;;;;18.61;54.87;100860.69;5018825;28;20068;-77
2022/06/23 01:07:16;;;;;;;5.60;1.83;;;;;;;18.58;54.52;100861.94;5035140;28;20572;-77
2022/06/23 01:09:50;;;;;;;2.38;1.33;;;;;;;18.59;54.16;100871.44;5034965;28;20304;-77
2022/06/23 01:12:38;;;;;;;2.45;1.48;;;;;;;18.56;54.11;100876.28;5034682;28;20048;-77
2022/06/23 01:15:03;;;;;;;3.00;1.30;;;;;;;18.51;53.88;100871.66;5046929;28;20124;-77
2022/06/23 01:17:40;;;;;;;3.65;2.28;;;;;;;18.48;53.69;100867.63;5037513;28;20382;-77
2022/06/23 01:20:35;;;;;;;4.60;2.17;;;;;;;18.44;53.54;100863.81;5033057;28;20041;-77
2022/06/23 01:23:15;;;;;;;6.40;1.30;;;;;;;18.39;53.50;100862.81;5036402;28;20524;-77
2022/06/23 01:25:50;;;;;;;2.08;1.30;;;;;;;18.36;53.16;100865.84;5034899;28;20032;-77
2022/06/23 01:28:27;;;;;;;2.45;1.35;;;;;;;18.33;53.49;100860.97;5041376;28;20417;-77
2022/06/23 01:31:11;;;;;;;2.85;1.30;;;;;;;18.33;53.64;100876.72;5034553;28;20083;-77
2022/06/23 01:34:04;;;;;;;3.08;1.45;;;;;;;18.33;53.43;100874.94;5050939;28;20037;-77
2022/06/23 01:36:38;;;;;;;3.58;1.73;;;;;;;18.33;53.65;100885.44;5035894;28;20032;-77
2022/06/23 01:39:17;;;;;;;2.10;1.58;;;;;;;18.31;54.04;100882.22;5020934;28;20034;-77
2022/06/23 01:41:51;;;;;;;4.10;1.60;;;;;;;18.31;54.25;100884.84;5019614;28;20087;-76
2022/06/23 01:44:42;;;;;;;5.45;1.52;;;;;;;18.30;54.52;100888.47;5040317;28;20573;-77
2022/06/23 01:47:27;;;;;;;2.72;1.45;;;;;;;18.26;55.17;100884.63;5038066;28;20098;-77
2022/06/23 01:50:16;;;;;;;1.95;1.15;;;;;;;18.24;55.49;100873.53;5040789;28;20110;-77
2022/06/23 01:52:44;;;;;;;4.13;1.45;;;;;;;18.22;55.61;100876.38;5036294;28;20420;-77
2022/06/23 01:55:21;;;;;;;2.33;1.33;;;;;;;18.20;55.40;100867.88;5038129;28;20036;-77
2022/06/23 01:58:13;;;;;;;4.80;1.73;;;;;;;18.18;55.66;100866.50;5042179;28;20106;-77
2022/06/23 02:00:44;;;;;;;3.42;1.58;;;;;;;18.14;56.02;100868.72;5040120;28;20045;-76
2022/06/23 02:03:23;;;;;;;2.55;1.23;;;;;;;18.09;56.19;100885.06;5039448;28;20524;-77
2022/06/23 02:06:00;;;;;;;2.40;1.42;;;;;;;18.06;56.51;100880.22;5039806;28;20060;-77
2022/06/23 02:08:42;;;;;;;2.05;1.20;;;;;;;18.03;56.70;100885.06;5033850;28;20041;-76
2022/06/23 02:11:18;;;;;;;3.70;1.23;;;;;;;17.99;56.51;100883.84;5039818;28;20052;-77
2022/06/23 02:14:02;;;;;;;3.45;1.48;;;;;;;17.96;55.97;100881.66;5036133;28;20033;-76
2022/06/23 02:16:39;;;;;;;1.60;1.20;;;;;;;17.94;55.60;100878.41;5039244;28;20497;-77
2022/06/23 02:19:19;;;;;;;3.45;1.27;;;;;;;17.90;55.89;100878.81;5035790;28;20037;-77
2022/06/23 02:22:03;;;;;;;2.75;1.25;;;;;;;17.88;56.55;100878.22;5031811;28;21118;-77
2022/06/23 02:24:46;;;;;;;1.58;1.48;;;;;;;17.70;58.15;100876.16;5049246;28;20538;-77
2022/06/23 02:27:19;;;;;;;6.60;1.95;;;;;;;17.49;59.08;100879.75;5036899;28;20040;-77
2022/06/23 02:29:52;;;;;;;4.80;2.13;;;;;;;17.36;59.79;100881.56;5038920;28;20506;-77
2022/06/23 02:32:22;;;;;;;;;;;;;;;17.31;60.26;100880.34;5036187;28;20040;-76
2022/06/23 02:35:23;;;;;;;4.25;1.60;;;;;;;17.37;60.14;100880.56;5037718;28;19917;-77
2022/06/23 02:37:57;;;;;;;6.82;1.75;;;;;;;17.41;59.81;100881.78;5023673;28;20063;-77
2022/06/23 02:40:31;;;;;;;2.80;1.90;;;;;;;17.44;59.96;100879.56;5038080;28;20107;-77
2022/06/23 02:43:29;;;;;;;2.65;1.77;;;;;;;17.45;60.23;100888.22;5038984;28;20075;-77
2022/06/23 02:46:21;;;;;;;2.63;1.60;;;;;;;17.45;60.41;100889.03;5031564;28;20040;-77
2022/06/23 02:48:57;;;;;;;3.45;1.73;;;;;;;17.45;60.70;100878.53;5038318;28;20142;-76
2022/06/23 02:51:40;;;;;;;3.35;1.70;;;;;;;17.45;60.96;100878.53;5035885;28;20036;-77
2022/06/23 02:54:31;;;;;;;3.22;1.40;;;;;;;17.45;60.86;100880.38;5033445;28;20043;-77
2022/06/23 02:57:19;;;;;;;3.13;1.75;;;;;;;17.44;60.40;100873.50;5035386;28;20044;-77
2022/06/23 02:59:58;;;;;;;4.53;1.75;;;;;;;17.43;59.74;100877.94;5030666;28;20088;-77
2022/06/23 03:02:32;;;;;;;3.13;1.65;;;;;;;17.42;59.83;100873.72;5035108;28;20039;-77
2022/06/23 03:05:03;;;;;;;4.53;1.60;;;;;;;17.40;59.96;100880.16;5029246;28;20545;-77
2022/06/23 03:07:42;;;;;;;2.80;1.40;;;;;;;17.29;60.91;100879.75;5034495;28;20044;-77
2022/06/23 03:10:08;;;;;;;6.07;1.60;;;;;;;17.16;62.08;100881.50;5032864;28;20029;-77
2022/06/23 03:12:43;;;;;;;4.03;1.77;;;;;;;17.02;62.99;100880.66;5031613;28;20044;-77
2022/06/23 03:15:12;;;;;;;7.05;1.90;;;;;;;16.89;63.53;100881.41;5031671;28;20241;-77
2022/06/23 03:17:46;;;;;;;6.00;1.95;;;;;;;16.78;63.78;100889.78;5018201;28;20677;-77
2022/06/23 03:20:20;;;;;;;6.28;1.73;;;;;;;16.71;63.70;100887.97;5035412;28;20025;-77
2022/06/23 03:23:01;;;;;;;5.32;1.77;;;;;;;16.62;63.90;100883.09;5037276;28;20464;-77
2022/06/23 03:25:37;;;;;;;7.47;1.80;;;;;;;16.59;63.47;100883.47;5036461;28;20267;-77
2022/06/23 03:28:14;;;;;;;3.40;1.45;;;;;;;16.63;63.08;100885.53;5030024;28;20029;-76
2022/06/23 03:30:56;;;;;;;4.32;2.05;;;;;;;16.67;63.37;100878.06;5034085;28;20102;-76
2022/06/23 03:33:36;;;;;;;2.50;1.50;;;;;;;16.68;63.40;100877.06;5032489;28;20037;-77
2022/06/23 03:36:30;;;;;;;6.10;2.30;;;;;;;16.70;63.23;100880.28;5032161;28;20060;-77
2022/06/23 03:42:06;;;;;;;3.22;1.92;;;;;;;16.76;62.86;100876.91;5031831;28;20128;-77
2022/06/23 03:44:38;;;;;;;;;;;;;;;16.80;63.09;100885.16;5034877;28;20056;-77
2022/06/23 03:47:27;;;;;;;5.68;2.20;;;;;;;16.82;63.27;100883.16;5030809;28;19923;-77
2022/06/23 03:50:02;;;;;;;6.38;1.73;;;;;;;16.83;63.75;100877.75;5034255;28;20039;-77
2022/06/23 03:52:36;;;;;;;4.90;1.80;;;;;;;16.84;63.75;100879.41;5033985;28;20036;-77
2022/06/23 03:55:26;;;;;;;4.80;2.17;;;;;;;16.83;64.02;100876.97;5033449;28;20425;-77
2022/06/23 03:57:58;;;;;;;3.85;2.30;;;;;;;16.73;65.37;100869.44;5033169;28;20057;-76
2022/06/23 04:00:37;;;;;;;4.13;2.50;;;;;;;16.62;66.13;100876.03;5034840;28;20029;-76
2022/06/23 04:03:41;;;;;;;5.15;1.88;;;;;;;16.49;66.77;100876.75;5043528;28;20121;-76
2022/06/23 04:06:42;;;;;;;6.78;2.00;;;;;;;16.45;66.78;100880.78;5023006;28;20145;-76
2022/06/23 04:09:13;;;;;;;3.42;2.00;;;;;;;16.49;66.44;100876.75;5032898;28;20726;-77
2022/06/23 04:11:54;;;;;;;2.75;1.60;;;;;;;16.58;65.97;100884.47;5027917;28;20044;-76
2022/06/23 04:14:40;;;;;;;4.80;1.80;;;;;;;16.63;65.62;100882.91;5030474;28;20025;-76
2022/06/23 04:17:19;;;;;;;4.45;1.80;;;;;;;16.68;65.89;100882.31;5033163;28;20052;-76
2022/06/23 04:19:49;;;;;;;7.05;2.10;;;;;;;16.71;66.12;100871.47;5032085;28;20041;-77
2022/06/23 04:22:41;;;;;;;5.15;2.47;;;;;;;16.73;66.04;100875.47;5034650;28;20172;-76
2022/06/23 04:25:12;;;;;;;6.95;1.90;;;;;;;16.78;65.96;100876.72;5024976;28;20433;-76
2022/06/23 04:27:44;;;;;;;4.18;1.95;;;;;;;16.85;65.83;100886.22;5034515;28;20340;-76
2022/06/23 04:30:23;;;;;;;7.28;1.83;;;;;;;16.92;66.04;100879.22;5034977;28;21232;-76
2022/06/23 04:32:50;;;;;;;6.03;2.30;;;;;;;16.99;65.88;100887.13;5036280;28;20033;-76
2022/06/23 04:35:20;;;;;;;3.20;1.98;;;;;;;17.05;66.21;100886.31;5035837;28;20233;-77
2022/06/23 04:37:48;;;;;;;3.85;2.15;;;;;;;17.10;66.18;100881.31;5035506;28;20090;-76
2022/06/23 04:40:18;;;;;;;7.13;3.40;;;;;;;17.19;66.63;100887.16;5035193;28;20083;-76
2022/06/23 04:42:53;;;;;;;5.80;2.40;;;;;;;17.23;67.06;100883.13;5032840;28;20038;-76
2022/06/23 04:45:35;;;;;;;5.90;2.53;;;;;;;17.42;65.53;100883.38;5036929;28;20036;-77
2022/06/23 04:48:05;;;;;;;5.60;2.60;;;;;;;17.45;65.71;100880.38;5032651;28;20037;-77
2022/06/23 04:50:55;;;;;;;4.90;2.78;;;;;;;17.49;66.43;100879.75;5033616;28;21409;-76
2022/06/23 04:53:57;;;;;;;9.98;3.67;;;;;;;17.55;66.35;100880.78;5036314;28;20037;-77
2022/06/23 04:56:30;;;;;;;4.80;2.65;;;;;;;17.65;65.81;100880.38;5022876;28;20044;-77
2022/06/23 04:59:04;;;;;;;5.63;2.97;;;;;;;17.70;65.93;100886.63;5042308;28;20110;-77
2022/06/23 05:01:38;;;;;;;4.40;2.72;;;;;;;17.90;65.44;100885.88;5048577;28;20477;-77
2022/06/23 05:04:11;;;;;;;5.90;2.50;;;;;;;18.02;65.00;100892.13;5029139;28;20288;-76
2022/06/23 05:06:44;;;;;;;4.57;2.47;;;;;;;18.07;65.15;100904.63;5030260;28;20033;-76
2022/06/23 05:09:38;;;;;;;8.10;3.22;;;;;;;18.27;63.71;100896.72;5047002;28;20124;-75
2022/06/23 05:12:20;;;;;;;7.25;2.25;;;;;;;18.45;63.28;100898.72;5029776;28;20049;-76
2022/06/23 05:14:55;;;;;;;4.00;2.38;;;;;;;18.61;62.93;100887.78;5034033;28;20589;-77
2022/06/23 05:17:28;;;;;;;6.82;2.47;;;;;;;18.76;61.67;100889.34;5038076;28;20060;-78
2022/06/23 05:19:57;;;;;;;12.10;2.67;;;;;;;18.90;60.99;100888.31;5040128;28;20037;-75
2022/06/23 05:22:28;;;;;;;3.65;2.40;;;;;;;19.14;59.26;100896.50;5040521;28;20029;-76
2022/06/23 05:24:57;;;;;;;5.45;2.97;;;;;;;19.32;58.82;100890.53;5036274;28;20422;-75
2022/06/23 05:27:32;;;;;;;4.72;2.13;;;;;;;19.37;58.02;100882.81;5043181;28;20569;-75
2022/06/23 05:30:21;;;;;;;4.07;2.15;;;;;;;19.50;57.86;100880.09;5037258;28;20453;-76
2022/06/23 05:32:57;;;;;;;2.85;2.40;;;;;;;19.59;57.90;100878.81;5040239;28;20044;-76
2022/06/23 05:35:32;;;;;;;5.60;2.58;;;;;;;19.77;56.81;100879.91;5033977;28;20124;-76
2022/06/23 05:38:25;;;;;;;6.05;2.50;;;;;;;19.96;56.78;100883.41;5046324;28;20044;-77
2022/06/23 05:40:55;;;;;;;6.15;2.83;;;;;;;20.11;56.94;100881.22;5037043;28;20421;-76
2022/06/23 05:43:21;;;;;;;8.15;2.75;;;;;;;20.23;56.44;100879.50;5041567;28;20032;-76
2022/06/23 05:45:51;;;;;;;5.50;2.35;;;;;;;20.37;56.17;100876.72;5034466;28;20064;-77
2022/06/23 05:48:42;;;;;;;3.95;2.35;;;;;;;20.51;56.48;100870.31;5033622;28;20042;-77
2022/06/23 05:51:16;;;;;;;10.40;3.00;;;;;;;20.71;56.36;100882.47;5033616;28;20036;-76
2022/06/23 05:53:59;;;;;;;9.07;2.47;;;;;;;20.93;56.25;100890.72;5025419;28;20493;-79
2022/06/23 05:56:52;;;;;;;5.65;2.08;;;;;;;21.10;55.98;100885.63;5021235;28;20421;-77
2022/06/23 05:59:24;;;;;;;4.20;2.63;;;;;;;21.31;55.87;100894.88;5036278;28;20120;-76
2022/06/23 06:01:56;;;;;;;4.95;2.47;;;;;;;21.50;55.65;100890.34;5035564;28;20032;-78
2022/06/23 06:04:37;;;;;;;10.77;3.13;;;;;;;21.81;55.12;100897.16;5033465;28;20072;-76
2022/06/23 06:07:04;;;;;;;5.60;2.63;;;;;;;21.84;55.12;100893.28;5034994;28;20033;-76
2022/06/23 06:09:36;;;;;;;9.52;2.55;;;;;;;22.13;55.23;100891.53;5035526;28;20033;-77
2022/06/23 06:12:06;;;;;;;8.15;2.78;;;;;;;22.20;54.99;100886.94;5033292;28;20033;-77
2022/06/23 06:14:42;;;;;;;7.57;2.80;;;;;;;22.62;54.51;100889.44;5037424;28;20108;-76
2022/06/23 06:17:18;;;;;;;6.78;2.97;;;;;;;22.81;53.71;100887.44;5037749;28;20028;-77
2022/06/23 06:19:44;;;;;;;5.35;2.65;;;;;;;23.06;53.50;100881.03;5024231;28;20032;-76
2022/06/23 06:22:18;;;;;;;7.28;3.13;;;;;;;23.50;53.30;100875.97;5036663;28;20393;-77
2022/06/23 06:24:48;;;;;;;4.30;2.53;;;;;;;23.52;52.93;100879.16;5040566;28;20060;-78
2022/06/23 06:27:13;;;;;;;8.93;3.33;;;;;;;23.68;52.97;100880.22;5036396;28;20025;-76
2022/06/23 06:29:43;;;;;;;7.10;3.00;;;;;;;23.78;52.63;100875.06;5047354;28;20064;-77
2022/06/23 06:32:33;;;;;;;6.07;3.25;;;;;;;23.94;52.42;100883.25;5035682;28;20512;-77
2022/06/23 06:35:20;;;;;;;8.38;2.80;;;;;;;24.15;51.88;100889.63;5034736;28;20037;-76
2022/06/23 06:37:53;;;;;;;8.55;3.42;;;;;;;24.42;51.73;100892.41;5039353;28;20028;-76
2022/06/23 06:40:19;;;;;;;5.85;3.00;;;;;;;24.22;51.82;100887.63;5035459;28;20029;-76
2022/06/23 06:43:09;;;;;;;12.40;3.40;;;;;;;24.39;52.09;100884.94;5038263;28;20405;-77
2022/06/23 06:45:36;;;;;;;8.63;3.65;;;;;;;24.76;51.67;100882.47;5037403;28;20037;-77
2022/06/23 06:48:09;;;;;;;9.60;3.20;;;;;;;24.97;51.05;100880.03;5035406;28;20515;-76
2022/06/23 06:50:42;;;;;;;5.32;3.45;;;;;;;25.28;50.51;100877.69;5034488;28;20025;-77
2022/06/23 06:53:17;;;;;;;12.70;3.50;;;;;;;25.29;50.42;100874.78;5036969;28;20063;-77
2022/06/23 06:55:49;;;;;;;5.03;3.33;;;;;;;25.53;50.21;100874.47;5037595;28;20079;-77
2022/06/23 06:58:32;;;;;;;5.18;3.13;;;;;;;26.06;49.63;100878.00;5038076;28;20043;-77
2022/06/23 07:01:04;;;;;;;7.85;3.70;;;;;;;26.30;48.72;100873.09;5038591;28;20036;-76
2022/06/23 07:03:34;;;;;;;10.02;3.13;;;;;;;26.34;48.90;100868.06;5036324;28;20068;-76
2022/06/23 07:06:12;;;;;;;7.88;3.65;;;;;;;26.15;49.12;100873.03;5038486;28;20040;-77
2022/06/23 07:08:44;;;;;;;10.82;3.80;;;;;;;26.36;48.62;100879.22;5020083;28;20029;-78
2022/06/23 07:11:13;;;;;;;;;;;;;;;26.63;48.84;100883.59;5032052;28;20476;-77
2022/06/23 07:13:50;;;;;;;6.63;3.15;;;;;;;26.95;47.65;100878.09;5038599;28;20043;-77
2022/06/23 07:16:32;;;;;;;8.30;3.85;;;;;;;27.18;47.73;100876.78;5040208;28;20056;-77
2022/06/23 07:19:24;;;;;;;10.55;3.03;;;;;;;27.58;47.10;100872.56;5038764;28;20754;-79
2022/06/23 07:22:09;;;;;;;9.45;3.20;;;;;;;27.65;47.71;100874.94;5023592;28;20102;-76
2022/06/23 07:25:03;;;;;;;11.43;3.08;;;;;;;28.15;47.16;100868.72;5034770;28;20040;-77
2022/06/23 07:27:41;;;;;;;7.65;3.40;;;;;;;28.50;46.47;100864.31;5026750;28;20101;-76
2022/06/23 07:30:18;;;;;;;7.05;3.50;;;;;;;28.56;46.13;100865.09;5036868;28;20413;-77
2022/06/23 07:32:59;;;;;;;9.93;4.05;;;;;;;28.77;46.12;100855.09;5037979;28;20444;-77
2022/06/23 07:35:51;;;;;;;13.13;4.43;;;;;;;28.72;46.19;100850.59;5037974;28;20567;-77
2022/06/23 07:38:33;;;;;;;13.38;3.45;;;;;;;28.69;45.74;100843.16;5036107;28;20630;-76
2022/06/23 07:40:58;;;;;;;14.67;3.27;;;;;;;28.97;45.58;100840.84;5037342;28;21046;-76
2022/06/23 07:43:31;;;;;;;8.45;3.60;;;;;;;29.34;45.28;100836.81;5037217;28;20153;-76
2022/06/23 07:45:59;;;;;;;11.27;3.60;;;;;;;29.14;44.41;100834.31;5035637;28;20517;-79
2022/06/23 07:48:26;;;;;;;13.65;4.35;;;;;;;29.44;44.95;100847.41;5021857;28;20036;-76
2022/06/23 07:50:54;;;;;;;11.98;3.83;;;;;;;29.51;44.19;100841.72;5037818;28;20035;-79
2022/06/23 07:53:22;;;;;;;19.10;4.78;;;;;;;29.20;44.44;100843.88;5035390;28;20562;-78
2022/06/23 07:55:48;;;;;;;8.52;3.20;;;;;;;29.42;44.37;100840.75;5037378;28;20033;-78
2022/06/23 07:58:27;;;;;;;11.55;3.65;;;;;;;29.45;44.06;100840.97;5034846;28;20410;-77
2022/06/23 08:01:04;;;;;;;14.98;3.95;;;;;;;29.77;43.96;100844.16;5036010;28;20041;-78
2022/06/23 08:03:39;;;;;;;16.75;3.20;;;;;;;29.64;42.85;100837.59;5038444;28;20033;-77
2022/06/23 08:06:09;;;;;;;8.80;3.67;;;;;;;30.13;41.74;100833.84;5055471;28;20123;-77
2022/06/23 08:08:38;;;;;;;14.02;3.35;;;;;;;30.06;41.68;100841.41;5036868;28;20036;-78
2022/06/23 08:14:04;;;;;;;13.20;3.30;;;;;;;30.33;42.00;100840.03;5036056;28;20063;-78
2022/06/23 08:16:49;;;;;;;15.73;3.38;;;;;;;30.69;41.15;100843.03;5039211;28;20029;-77
2022/06/23 08:19:40;;;;;;;10.68;3.45;;;;;;;30.66;41.23;100848.94;5034186;28;20029;-78
2022/06/23 08:22:12;;;;;;;17.02;4.38;;;;;;;30.02;42.07;100851.09;5038346;28;20038;-78
2022/06/23 08:24:40;;;;;;;17.63;3.85;;;;;;;30.36;41.66;100842.13;5033147;28;20048;-78
2022/06/23 08:27:10;;;;;;;18.13;4.38;;;;;;;30.22;42.46;100842.03;5038198;28;20043;-77
2022/06/23 08:29:43;;;;;;;14.13;4.00;;;;;;;30.50;41.88;100847.56;5034471;28;21295;-78
2022/06/23 08:32:11;;;;;;;13.38;3.42;;;;;;;30.08;41.92;100844.59;5034653;28;20029;-80
2022/06/23 08:34:46;;;;;;;12.57;3.20;;;;;;;30.17;42.50;100850.09;5037101;28;20159;-78
2022/06/23 08:37:19;;;;;;;11.85;3.53;;;;;;;30.32;42.33;100846.44;5038311;28;20047;-78
2022/06/23 08:39:50;;;;;;;13.50;3.05;;;;;;;30.86;41.57;100845.97;5032691;28;20061;-79
2022/06/23 08:42:59;;;;;;;16.33;4.63;;;;;;;30.76;41.43;100846.13;5036137;28;20025;-77
2022/06/23 08:45:54;;;;;;;16.63;4.47;;;;;;;31.14;41.59;100843.41;5019434;28;20052;-78
2022/06/23 08:48:28;;;;;;;11.88;3.95;;;;;;;31.28;40.65;100848.00;5051346;28;20116;-78
2022/06/23 08:51:07;;;;;;;10.85;3.65;;;;;;;31.13;41.12;100838.34;5031081;28;20352;-79
2022/06/23 08:53:55;;;;;;;15.32;4.47;;;;;;;31.38;39.67;100845.13;5037253;28;20048;-78
2022/06/23 08:56:45;;;;;;;10.95;3.75;;;;;;;30.94;40.52;100843.75;5037108;28;20447;-79
2022/06/23 08:59:27;;;;;;;16.55;4.10;;;;;;;31.54;40.47;100834.97;5034589;28;20055;-78
2022/06/23 09:02:03;;;;;;;11.88;3.63;;;;;;;31.88;39.30;100837.25;5034447;28;20041;-77
2022/06/23 09:04:58;;;;;;;10.82;4.20;;;;;;;32.20;38.23;100830.22;5014938;28;20095;-80
2022/06/23 09:07:42;;;;;;;14.32;4.25;;;;;;;32.37;38.42;100829.56;5036732;28;20039;-78
2022/06/23 09:10:25;;;;;;;16.30;4.20;;;;;;;31.88;38.86;100823.88;5034074;28;20256;-78
2022/06/23 09:13:06;;;;;;;9.05;4.07;;;;;;;31.31;39.93;100824.13;5034267;28;20033;-78
2022/06/23 09:15:50;;;;;;;11.32;3.72;;;;;;;31.34;39.52;100833.44;5036248;28;20532;-78
2022/06/23 09:18:47;;;;;;;14.18;3.47;;;;;;;31.80;38.13;100824.56;5033626;28;20531;-78
2022/06/23 09:21:39;;;;;;;14.80;3.70;;;;;;;31.56;38.49;100824.75;5034070;28;20477;-78
2022/06/23 09:24:34;;;;;;;10.55;3.88;;;;;;;31.86;38.54;100820.69;5036178;28;20040;-78
2022/06/23 09:27:27;;;;;;;12.57;3.95;;;;;;;31.34;38.46;100815.47;5027190;28;20076;-79
2022/06/23 09:30:06;;;;;;;15.93;3.45;;;;;;;31.57;38.36;100818.28;5034393;28;20045;-78
2022/06/23 09:32:43;;;;;;;7.63;3.72;;;;;;;31.47;38.43;100815.81;5032964;28;20099;-76
2022/06/23 09:35:21;;;;;;;10.65;4.15;;;;;;;32.01;38.52;100812.34;5037611;28;20040;-77
2022/06/23 09:38:07;;;;;;;15.55;3.83;;;;;;;31.90;37.45;100813.63;5050208;28;20045;-78
2022/06/23 09:40:55;;;;;;;9.18;3.85;;;;;;;31.87;37.76;100803.50;5035523;28;20045;-78
2022/06/23 09:43:46;;;;;;;11.40;3.33;;;;;;;32.36;36.64;100801.16;5029567;28;20029;-79
2022/06/23 09:46:31;;;;;;;21.17;4.20;;;;;;;32.54;36.27;100792.16;5028246;28;20043;-77
2022/06/23 09:49:34;;;;;;;13.32;3.95;;;;;;;31.92;36.91;100791.91;5034946;28;20594;-79
2022/06/23 09:52:16;;;;;;;10.20;3.10;;;;;;;32.19;35.48;100801.78;4999754;28;20052;-80
2022/06/23 09:54:47;;;;;;;7.78;3.25;;;;;;;32.00;37.00;100791.19;5030224;28;20025;-77
2022/06/23 09:57:31;;;;;;;9.85;3.15;;;;;;;32.42;35.99;100791.91;5032858;28;20040;-77
2022/06/23 10:00:04;;;;;;;12.75;3.78;;;;;;;32.51;35.77;100784.72;5035502;28;20336;-77
2022/06/23 10:03:05;;;;;;;17.98;3.47;;;;;;;32.16;36.67;100787.13;5038873;28;20052;-78
2022/06/23 10:06:08;;;;;;;16.17;3.40;;;;;;;32.40;36.60;100786.84;5014900;28;20041;-77
2022/06/23 10:08:51;;;;;;;13.23;3.33;;;;;;;32.76;36.17;100786.03;5044607;28;20553;-80
2022/06/23 10:11:59;;;;;;;10.43;3.10;;;;;;;32.93;35.59;100784.56;5035636;28;20130;-79
2022/06/23 10:14:39;;;;;;;7.43;3.03;;;;;;;33.20;35.17;100786.28;5031941;28;20103;-81
2022/06/23 10:17:42;;;;;;;9.63;3.22;;;;;;;33.38;35.30;100784.47;5022555;28;20375;-78
2022/06/23 10:20:10;;;;;;;;;;;;;;;33.32;34.21;100783.00;5042191;28;20062;-78
2022/06/23 10:23:10;;;;;;;10.70;3.85;;;;;;;33.05;34.45;100784.75;5031229;28;19924;-78
2022/06/23 10:25:46;;;;;;;7.68;2.80;;;;;;;32.93;33.02;100792.59;5033645;28;20238;-81
2022/06/23 10:28:27;;;;;;;9.10;3.75;;;;;;;32.89;33.01;100778.19;5045675;28;20059;-79
2022/06/23 10:30:57;;;;;;;10.10;3.20;;;;;;;33.13;33.59;100783.25;5042504;28;20029;-78
2022/06/23 10:33:54;;;;;;;7.65;2.55;;;;;;;32.97;33.93;100780.16;5036402;28;20033;-78
2022/06/23 10:37:04;;;;;;;11.43;3.45;;;;;;;33.46;34.07;100777.56;5037618;28;20032;-77
2022/06/23 10:40:05;;;;;;;9.50;2.58;;;;;;;33.54;33.05;100763.34;5031444;28;20095;-78
2022/06/23 10:42:54;;;;;;;14.95;2.78;;;;;;;33.77;34.52;100776.69;5033951;28;20463;-78
2022/06/23 10:45:41;;;;;;;8.40;2.45;;;;;;;33.81;33.21;100772.28;5035471;28;20033;-79
2022/06/23 10:48:28;;;;;;;11.30;2.60;;;;;;;33.67;34.55;100773.19;5037995;28;20553;-77
2022/06/23 10:51:20;;;;;;;7.93;2.90;;;;;;;33.11;35.71;100774.72;5035208;28;20034;-78
2022/06/23 10:54:12;;;;;;;11.02;3.88;;;;;;;33.47;35.68;100768.38;5034905;28;20087;-78
2022/06/23 10:56:57;;;;;;;4.55;2.47;;;;;;;33.50;35.40;100765.84;5040425;28;20583;-80
2022/06/23 10:59:47;;;;;;;11.45;3.10;;;;;;;33.63;34.90;100758.00;5034967;28;20033;-78
2022/06/23 11:02:31;;;;;;;10.07;2.60;;;;;;;33.24;34.97;100763.06;5020763;28;20044;-77
2022/06/23 11:05:05;;;;;;;11.07;2.83;;;;;;;33.47;35.52;100765.69;5018874;28;20393;-78
2022/06/23 11:07:36;;;;;;;8.32;2.60;;;;;;;33.71;34.86;100759.94;5035898;28;20109;-78
2022/06/23 11:10:09;;;;;;;11.82;2.47;;;;;;;33.97;35.31;100759.19;5033522;28;20025;-79
2022/06/23 11:13:12;;;;;;;7.10;2.65;;;;;;;34.35;33.41;100747.81;5036151;28;20036;-78
2022/06/23 11:16:03;;;;;;;11.02;2.88;;;;;;;34.32;33.45;100746.53;5032047;28;20389;-80
2022/06/23 11:18:35;;;;;;;11.10;2.63;;;;;;;33.97;33.87;100753.81;5037712;28;20494;-80
2022/06/23 11:21:16;;;;;;;13.52;3.20;;;;;;;33.72;35.11;100754.25;5039912;28;20520;-79
2022/06/23 11:24:12;;;;;;;10.13;2.60;;;;;;;33.94;34.90;100741.75;5035748;28;20659;-79
2022/06/23 11:27:02;;;;;;;9.68;2.75;;;;;;;34.28;34.57;100738.34;5035012;28;20041;-78
2022/06/23 11:30:00;;;;;;;17.15;3.33;;;;;;;34.00;34.43;100740.53;5039571;28;20308;-78
2022/06/23 11:32:40;;;;;;;9.13;2.60;;;;;;;33.79;34.77;100740.31;5038627;28;20501;-78
2022/06/23 11:35:11;;;;;;;19.50;3.33;;;;;;;34.07;35.44;100743.50;5034736;28;20139;-78
2022/06/23 11:37:58;;;;;;;13.18;3.58;;;;;;;33.83;34.61;100735.13;5038483;28;20905;-79
2022/06/23 11:40:42;;;;;;;15.45;3.95;;;;;;;33.51;34.95;100737.91;5038840;28;20043;-79
2022/06/23 11:43:10;;;;;;;7.90;2.40;;;;;;;33.58;34.83;100744.69;5040224;28;20041;-77
2022/06/23 11:46:00;;;;;;;14.82;3.00;;;;;;;33.75;36.38;100728.63;5035013;28;20040;-80
2022/06/23 11:48:39;;;;;;;9.20;3.13;;;;;;;33.73;34.91;100736.22;5032799;28;20048;-79
2022/06/23 11:51:23;;;;;;;12.75;2.95;;;;;;;33.78;35.32;100725.31;5048717;28;20444;-77
2022/06/23 11:54:13;;;;;;;11.25;3.15;;;;;;;34.24;34.85;100717.75;5033316;28;20091;-78
2022/06/23 11:56:56;;;;;;;9.95;2.75;;;;;;;34.47;34.42;100724.53;5033548;28;20440;-79
2022/06/23 11:59:25;;;;;;;17.85;3.20;;;;;;;33.93;34.41;100714.09;5037576;28;20100;-79
2022/06/23 12:01:52;;;;;;;15.38;3.20;;;;;;;33.52;34.69;100717.97;5048439;28;20115;-78
2022/06/23 12:04:41;;;;;;;10.77;3.13;;;;;;;33.61;34.99;100717.22;5038661;28;20447;-79
2022/06/23 12:07:21;;;;;;;10.90;2.88;;;;;;;33.96;34.46;100711.88;5036933;28;20175;-79
2022/06/23 12:10:13;;;;;;;9.07;2.78;;;;;;;33.96;35.37;100714.56;5032555;28;20079;-79
2022/06/23 12:12:42;;;;;;;15.35;3.13;;;;;;;34.22;33.50;100712.69;5034649;28;20044;-79
2022/06/23 12:15:09;;;;;;;8.07;2.60;;;;;;;34.25;34.65;100706.69;5044858;28;20108;-78
2022/06/23 12:17:39;;;;;;;9.40;3.42;;;;;;;34.01;33.56;100699.06;5036479;28;20132;-77
2022/06/23 12:20:23;;;;;;;9.02;2.63;;;;;;;34.01;33.52;100703.66;5041742;28;20044;-78
2022/06/23 12:23:05;;;;;;;16.50;3.58;;;;;;;34.01;33.48;100698.28;5027398;28;20115;-77
2022/06/23 12:25:46;;;;;;;14.20;3.40;;;;;;;34.02;33.19;100695.28;5038224;28;20111;-78